createdAt,value
2018-08-09T00:01:11.735Z,21.42
2018-08-09T00:03:45.202Z,21.31
2018-08-09T00:06:18.589Z,21.27
2018-08-09T00:08:52.009Z,21.16
2018-08-09T00:11:25.411Z,21.14
2018-08-09T00:13:58.816Z,21.17
2018-08-09T00:16:32.198Z,21.17
2018-08-09T00:19:05.632Z,21.15
2018-08-09T00:21:39.027Z,21.10
2018-08-09T00:24:12.439Z,21.04
2018-08-09T00:26:45.837Z,21.01
2018-08-09T00:29:19.252Z,21.00
2018-08-09T00:31:52.623Z,20.95
2018-08-09T00:34:26.020Z,20.89
2018-08-09T00:36:59.403Z,20.80
2018-08-09T00:39:32.848Z,20.79
2018-08-09T00:42:06.510Z,20.75
2018-08-09T00:44:39.928Z,20.73
2018-08-09T00:47:13.340Z,20.69
2018-08-09T00:49:46.959Z,20.58
2018-08-09T00:52:20.392Z,20.62
2018-08-09T00:54:53.799Z,20.58
2018-08-09T00:57:27.242Z,20.54
2018-08-09T01:00:00.678Z,20.45
2018-08-09T01:02:34.135Z,20.42
2018-08-09T01:05:07.571Z,20.40
2018-08-09T01:07:40.946Z,20.34
2018-08-09T01:10:14.367Z,20.32
2018-08-09T01:12:47.785Z,20.25
2018-08-09T01:15:21.186Z,20.14
2018-08-09T01:17:54.667Z,20.14
2018-08-09T01:20:28.055Z,20.11
2018-08-09T01:23:01.450Z,20.20
2018-08-09T01:25:34.875Z,20.17
2018-08-09T01:28:08.265Z,20.01
2018-08-09T01:30:41.693Z,19.98
2018-08-09T01:33:15.088Z,19.96
2018-08-09T01:35:48.473Z,20.00
2018-08-09T01:38:21.878Z,20.01
2018-08-09T01:40:55.284Z,19.98
2018-08-09T01:43:39.895Z,19.90
2018-08-09T01:46:13.285Z,19.94
2018-08-09T01:48:46.650Z,19.78
2018-08-09T01:51:20.111Z,19.71
2018-08-09T01:53:53.903Z,19.62
2018-08-09T01:56:27.303Z,19.65
2018-08-09T01:59:00.718Z,19.62
2018-08-09T02:01:34.171Z,19.55
2018-08-09T02:04:07.585Z,19.59
2018-08-09T02:06:40.982Z,19.49
2018-08-09T02:09:18.507Z,19.49
2018-08-09T02:11:51.921Z,19.47
2018-08-09T02:14:25.291Z,19.50
2018-08-09T02:16:58.878Z,19.49
2018-08-09T02:19:32.270Z,19.45
2018-08-09T02:22:05.716Z,19.41
2018-08-09T02:24:39.207Z,19.43
2018-08-09T02:27:12.631Z,19.42
2018-08-09T02:29:46.015Z,19.43
2018-08-09T02:32:19.423Z,19.39
2018-08-09T02:34:52.799Z,19.37
2018-08-09T02:37:26.251Z,19.33
2018-08-09T02:39:59.629Z,19.36
2018-08-09T02:42:33.040Z,19.31
2018-08-09T02:45:06.499Z,19.35
2018-08-09T02:47:39.927Z,19.37
2018-08-09T02:50:13.356Z,19.33
2018-08-09T02:52:46.757Z,19.37
2018-08-09T02:55:20.163Z,19.37
2018-08-09T02:57:53.547Z,19.35
2018-08-09T03:00:27.007Z,19.30
2018-08-09T03:03:00.396Z,19.22
2018-08-09T03:05:33.807Z,19.26
2018-08-09T03:08:07.240Z,19.24
2018-08-09T03:10:40.634Z,19.25
2018-08-09T03:13:14.094Z,19.24
2018-08-09T03:15:47.477Z,19.20
2018-08-09T03:18:20.850Z,19.10
2018-08-09T03:20:54.246Z,19.15
2018-08-09T03:23:27.653Z,19.17
2018-08-09T03:26:01.061Z,19.12
2018-08-09T03:28:34.828Z,19.11
2018-08-09T03:31:08.272Z,19.18
2018-08-09T03:33:41.642Z,19.22
2018-08-09T03:36:15.058Z,19.16
2018-08-09T03:38:48.456Z,19.18
2018-08-09T03:41:21.859Z,19.18
2018-08-09T03:43:55.296Z,19.07
2018-08-09T03:46:28.713Z,19.10
2018-08-09T03:49:02.130Z,19.03
2018-08-09T03:51:35.910Z,19.07
2018-08-09T03:54:09.311Z,19.13
2018-08-09T03:56:42.714Z,19.14
2018-08-09T03:59:16.098Z,19.15
2018-08-09T04:01:54.705Z,19.14
2018-08-09T04:04:28.199Z,19.10
2018-08-09T04:07:01.603Z,19.08
2018-08-09T04:09:34.997Z,19.15
2018-08-09T04:12:08.426Z,19.18
2018-08-09T04:14:41.806Z,19.17
2018-08-09T04:17:21.340Z,19.17
2018-08-09T04:19:54.714Z,19.22
2018-08-09T04:22:28.112Z,19.24
2018-08-09T04:25:01.473Z,19.22
2018-08-09T04:27:34.856Z,19.26
2018-08-09T04:30:08.299Z,19.23
2018-08-09T04:32:41.671Z,19.31
2018-08-09T04:35:15.097Z,19.36
2018-08-09T04:37:48.488Z,19.39
2018-08-09T04:40:21.871Z,19.43
2018-08-09T04:42:55.261Z,19.42
2018-08-09T04:45:28.655Z,19.44
2018-08-09T04:48:02.044Z,19.54
2018-08-09T04:50:35.704Z,19.60
2018-08-09T04:53:09.100Z,19.68
2018-08-09T04:55:42.470Z,19.72
2018-08-09T04:58:15.880Z,19.79
2018-08-09T05:00:49.291Z,19.89
2018-08-09T05:03:22.671Z,20.03
2018-08-09T05:05:56.047Z,20.18
2018-08-09T05:08:29.456Z,20.27
2018-08-09T05:11:02.863Z,20.44
2018-08-09T05:13:36.271Z,20.59
2018-08-09T05:16:09.706Z,20.58
2018-08-09T05:18:43.107Z,20.68
2018-08-09T05:21:16.512Z,20.75
2018-08-09T05:23:49.918Z,20.89
2018-08-09T05:26:23.326Z,21.05
2018-08-09T05:28:56.767Z,21.22
2018-08-09T05:31:30.175Z,21.39
2018-08-09T05:34:03.716Z,21.53
2018-08-09T05:36:37.089Z,21.66
2018-08-09T05:39:11.672Z,21.76
2018-08-09T05:41:45.059Z,21.83
2018-08-09T05:44:18.458Z,21.88
2018-08-09T05:46:51.846Z,21.88
2018-08-09T05:49:25.230Z,22.04
2018-08-09T05:51:58.656Z,22.21
2018-08-09T05:54:32.071Z,22.36
2018-08-09T05:57:05.654Z,22.47
2018-08-09T05:59:39.099Z,22.61
2018-08-09T06:02:12.491Z,22.64
2018-08-09T06:04:45.881Z,22.81
2018-08-09T06:07:19.323Z,22.79
2018-08-09T06:09:52.702Z,23.00
2018-08-09T06:12:26.109Z,23.15
2018-08-09T06:14:59.538Z,23.19
2018-08-09T06:17:32.963Z,23.32
2018-08-09T06:20:06.479Z,23.47
2018-08-09T06:22:39.887Z,23.29
2018-08-09T06:25:13.296Z,23.40
2018-08-09T06:27:46.737Z,23.55
2018-08-09T06:30:20.159Z,23.41
2018-08-09T06:32:53.568Z,23.66
2018-08-09T06:35:26.934Z,23.76
2018-08-09T06:38:00.379Z,23.99
2018-08-09T06:40:33.802Z,24.10
2018-08-09T06:43:07.239Z,24.07
2018-08-09T06:45:40.636Z,24.29
2018-08-09T06:48:14.081Z,24.52
2018-08-09T06:50:47.472Z,24.48
2018-08-09T06:53:20.885Z,24.48
2018-08-09T06:55:54.262Z,24.66
2018-08-09T06:58:27.698Z,24.78
2018-08-09T07:01:01.132Z,24.71
2018-08-09T07:03:34.540Z,24.86
2018-08-09T07:06:07.920Z,25.00
2018-08-09T07:08:41.296Z,25.09
2018-08-09T07:11:14.683Z,24.81
2018-08-09T07:13:48.084Z,24.73
2018-08-09T07:16:21.450Z,24.86
2018-08-09T07:18:54.846Z,25.21
2018-08-09T07:21:28.264Z,25.52
2018-08-09T07:24:01.771Z,25.65
2018-08-09T07:26:35.219Z,25.90
2018-08-09T07:29:08.725Z,25.94
2018-08-09T07:31:42.126Z,26.07
2018-08-09T07:34:15.515Z,26.13
2018-08-09T07:36:48.937Z,26.07
2018-08-09T07:39:22.376Z,26.13
2018-08-09T07:41:55.744Z,26.30
2018-08-09T07:44:29.198Z,26.33
2018-08-09T07:47:02.605Z,26.61
2018-08-09T07:49:36.009Z,26.72
2018-08-09T07:52:09.428Z,26.51
2018-08-09T07:54:42.861Z,26.68
2018-08-09T07:57:16.227Z,26.86
2018-08-09T07:59:49.660Z,27.22
2018-08-09T08:02:23.056Z,27.69
2018-08-09T08:04:56.498Z,27.17
2018-08-09T08:07:29.938Z,27.41
2018-08-09T08:10:03.411Z,27.46
2018-08-09T08:12:36.822Z,27.45
2018-08-09T08:15:11.391Z,27.39
2018-08-09T08:17:44.717Z,27.47
2018-08-09T08:20:18.168Z,27.63
2018-08-09T08:22:51.538Z,27.82
2018-08-09T08:25:24.994Z,27.76
2018-08-09T08:27:58.355Z,27.88
2018-08-09T08:30:31.802Z,27.92
2018-08-09T08:33:06.061Z,28.03
2018-08-09T08:35:39.487Z,28.55
2018-08-09T08:38:12.875Z,28.86
2018-08-09T08:40:46.304Z,29.46
2018-08-09T08:43:19.687Z,29.95
2018-08-09T08:45:53.124Z,30.01
2018-08-09T08:48:26.534Z,29.77
2018-08-09T08:50:59.935Z,29.69
2018-08-09T08:53:33.330Z,29.67
2018-08-09T08:56:06.787Z,29.32
2018-08-09T08:58:40.224Z,29.44
2018-08-09T09:01:13.682Z,30.19
2018-08-09T09:03:47.100Z,30.71
2018-08-09T09:06:20.527Z,31.44
2018-08-09T09:08:53.907Z,31.53
2018-08-09T09:11:27.304Z,31.24
2018-08-09T09:14:00.711Z,30.53
2018-08-09T09:16:34.134Z,29.89
2018-08-09T09:19:08.059Z,30.01
2018-08-09T09:21:41.455Z,30.38
2018-08-09T09:24:14.860Z,31.03
2018-08-09T09:29:21.662Z,31.09
2018-08-09T09:31:55.103Z,31.31
2018-08-09T09:34:28.601Z,31.43
2018-08-09T09:37:01.989Z,31.53
2018-08-09T09:39:35.420Z,31.60
2018-08-09T09:42:08.855Z,30.92
2018-08-09T09:44:42.266Z,30.71
2018-08-09T09:47:15.662Z,30.23
2018-08-09T09:49:49.057Z,30.32
2018-08-09T09:52:22.831Z,30.16
2018-08-09T09:54:56.254Z,29.88
2018-08-09T09:57:29.628Z,29.72
2018-08-09T10:00:03.094Z,29.90
2018-08-09T10:02:36.486Z,30.00
2018-08-09T10:05:10.072Z,29.88
2018-08-09T10:07:43.426Z,29.99
2018-08-09T10:10:16.866Z,29.91
2018-08-09T10:12:50.281Z,30.07
2018-08-09T10:15:23.700Z,30.09
2018-08-09T10:17:57.099Z,30.18
2018-08-09T10:20:30.493Z,29.76
2018-08-09T10:23:03.894Z,29.87
2018-08-09T10:25:37.293Z,30.23
2018-08-09T10:28:10.685Z,30.24
2018-08-09T10:30:44.101Z,30.35
2018-08-09T10:33:17.511Z,30.50
2018-08-09T10:35:50.907Z,30.53
2018-08-09T10:38:24.279Z,30.51
2018-08-09T10:40:57.694Z,30.56
2018-08-09T10:43:31.062Z,30.61
2018-08-09T10:46:04.462Z,30.52
2018-08-09T10:48:38.687Z,30.35
2018-08-09T10:51:12.078Z,30.40
2018-08-09T10:53:45.444Z,30.71
2018-08-09T10:56:18.962Z,30.77
2018-08-09T10:58:52.428Z,30.93
2018-08-09T11:01:25.862Z,31.09
2018-08-09T11:03:59.291Z,31.52
2018-08-09T11:06:32.687Z,31.88
2018-08-09T11:09:08.618Z,31.98
2018-08-09T11:11:42.007Z,31.87
2018-08-09T11:14:15.358Z,31.90
2018-08-09T11:16:48.846Z,31.97
2018-08-09T11:19:22.226Z,31.89
2018-08-09T11:21:55.664Z,32.30
2018-08-09T11:24:29.034Z,32.48
2018-08-09T11:27:02.437Z,32.51
2018-08-09T11:29:35.824Z,32.22
2018-08-09T11:32:09.218Z,32.10
2018-08-09T11:34:42.586Z,32.47
2018-08-09T11:37:15.988Z,32.42
2018-08-09T11:39:49.418Z,32.32
2018-08-09T11:42:22.807Z,32.31
2018-08-09T11:44:56.174Z,32.35
2018-08-09T11:47:29.619Z,32.37
2018-08-09T11:50:03.002Z,32.85
2018-08-09T11:52:36.395Z,33.03
2018-08-09T11:55:09.813Z,32.49
2018-08-09T11:57:43.195Z,32.38
2018-08-09T12:00:16.619Z,32.46
2018-08-09T12:02:50.058Z,32.39
2018-08-09T12:05:23.462Z,32.20
2018-08-09T12:07:56.866Z,32.23
2018-08-09T12:10:30.449Z,32.38
2018-08-09T12:13:03.905Z,31.96
2018-08-09T12:15:37.348Z,32.20
2018-08-09T12:18:10.784Z,32.18
2018-08-09T12:20:44.224Z,32.35
2018-08-09T12:23:17.643Z,32.24
2018-08-09T12:25:51.054Z,32.42
2018-08-09T12:28:24.542Z,32.56
2018-08-09T12:30:57.954Z,32.69
2018-08-09T12:33:31.458Z,32.66
2018-08-09T12:36:05.274Z,32.59
2018-08-09T12:38:38.699Z,32.65
2018-08-09T12:41:12.074Z,32.58
2018-08-09T12:43:45.583Z,32.48
2018-08-09T12:46:18.980Z,32.47
2018-08-09T12:48:52.467Z,32.58
2018-08-09T12:51:25.930Z,32.74
2018-08-09T12:53:59.982Z,32.75
2018-08-09T12:56:33.526Z,32.71
2018-08-09T12:59:06.978Z,32.41
2018-08-09T13:01:40.420Z,32.46
2018-08-09T13:04:13.887Z,32.43
2018-08-09T13:06:47.334Z,32.57
2018-08-09T13:09:20.752Z,32.85
2018-08-09T13:11:54.177Z,32.93
2018-08-09T13:14:27.604Z,32.76
2018-08-09T13:17:01.128Z,32.78
2018-08-09T13:19:34.520Z,32.74
2018-08-09T13:22:08.231Z,32.49
2018-08-09T13:24:41.623Z,32.73
2018-08-09T13:27:15.451Z,32.98
2018-08-09T13:29:55.543Z,32.76
2018-08-09T13:32:29.136Z,32.98
2018-08-09T13:35:02.575Z,33.16
2018-08-09T13:37:36.019Z,33.11
2018-08-09T13:40:10.232Z,33.07
2018-08-09T13:42:43.661Z,33.04
2018-08-09T13:45:17.257Z,32.95
2018-08-09T13:47:50.730Z,32.83
2018-08-09T13:50:24.207Z,32.59
2018-08-09T13:52:57.639Z,32.57
2018-08-09T13:55:31.037Z,32.57
2018-08-09T13:58:04.600Z,32.55
2018-08-09T14:00:38.043Z,32.67
2018-08-09T14:03:11.467Z,32.55
2018-08-09T14:05:44.886Z,32.67
2018-08-09T14:08:18.330Z,32.65
2018-08-09T14:10:51.726Z,32.54
2018-08-09T14:13:25.156Z,32.30
2018-08-09T14:15:58.625Z,32.46
2018-08-09T14:18:32.044Z,32.44
2018-08-09T14:21:05.431Z,32.52
2018-08-09T14:23:38.830Z,32.79
2018-08-09T14:26:12.243Z,33.00
2018-08-09T14:28:45.691Z,32.95
2018-08-09T14:31:19.077Z,33.00
2018-08-09T14:33:52.746Z,32.96
2018-08-09T14:36:26.172Z,33.18
2018-08-09T14:38:59.725Z,33.06
2018-08-09T14:41:33.152Z,32.87
2018-08-09T14:44:07.030Z,32.84
2018-08-09T14:46:40.448Z,32.99
2018-08-09T14:49:13.877Z,32.89
2018-08-09T14:51:47.259Z,32.90
2018-08-09T14:54:20.666Z,33.02
2018-08-09T14:56:54.058Z,32.83
2018-08-09T14:59:27.527Z,32.58
2018-08-09T15:02:00.963Z,32.73
2018-08-09T15:04:34.388Z,32.72
2018-08-09T15:07:07.773Z,32.74
2018-08-09T15:09:41.216Z,32.81
2018-08-09T15:12:14.668Z,32.79
2018-08-09T15:14:48.092Z,32.88
2018-08-09T15:17:21.543Z,32.84
2018-08-09T15:19:54.951Z,32.91
2018-08-09T15:22:28.358Z,32.94
2018-08-09T15:25:01.796Z,32.91
2018-08-09T15:27:35.299Z,32.94
2018-08-09T15:30:14.565Z,32.87
2018-08-09T15:32:48.307Z,32.88
2018-08-09T15:35:21.761Z,32.91
2018-08-09T15:37:55.252Z,32.93
2018-08-09T15:40:28.627Z,32.96
2018-08-09T15:43:02.067Z,32.74
2018-08-09T15:45:35.473Z,32.88
2018-08-09T15:48:08.938Z,32.79
2018-08-09T15:50:42.378Z,32.89
2018-08-09T15:53:15.775Z,32.85
2018-08-09T15:55:49.271Z,32.62
2018-08-09T15:58:22.699Z,32.73
2018-08-09T16:00:56.160Z,32.78
2018-08-09T16:03:30.018Z,32.84
2018-08-09T16:06:03.423Z,32.89
2018-08-09T16:08:36.858Z,32.76
2018-08-09T16:11:10.303Z,32.79
2018-08-09T16:13:43.727Z,32.76
2018-08-09T16:16:17.154Z,32.71
2018-08-09T16:18:50.589Z,32.62
2018-08-09T16:21:23.982Z,32.55
2018-08-09T16:23:57.388Z,32.51
2018-08-09T16:26:30.783Z,32.47
2018-08-09T16:29:05.451Z,32.50
2018-08-09T16:31:38.885Z,32.42
2018-08-09T16:34:12.324Z,32.30
2018-08-09T16:36:45.714Z,32.04
2018-08-09T16:39:19.123Z,31.29
2018-08-09T16:41:52.513Z,30.45
2018-08-09T16:44:25.931Z,29.58
2018-08-09T16:46:59.316Z,28.76
2018-08-09T16:49:32.787Z,27.77
2018-08-09T16:52:06.184Z,26.63
2018-08-09T16:54:39.686Z,25.64
2018-08-09T16:57:13.096Z,24.89
2018-08-09T16:59:46.720Z,24.28
2018-08-09T17:02:20.147Z,23.79
2018-08-09T17:04:53.784Z,23.56
2018-08-09T17:07:27.244Z,23.32
2018-08-09T17:10:00.726Z,23.23
2018-08-09T17:12:36.575Z,23.13
2018-08-09T17:15:13.345Z,23.06
2018-08-09T17:17:46.816Z,23.03
2018-08-09T17:20:25.655Z,22.93
2018-08-09T17:22:59.857Z,22.95
2018-08-09T17:25:33.420Z,22.93
2018-08-09T17:28:06.853Z,22.89
2018-08-09T17:30:40.405Z,22.85
2018-08-09T17:33:13.844Z,22.84
2018-08-09T17:35:47.611Z,22.78
2018-08-09T17:38:21.069Z,22.75
2018-08-09T17:40:54.526Z,22.73
2018-08-09T17:46:25.340Z,22.68
2018-08-09T17:52:07.098Z,22.67
2018-08-09T17:57:48.858Z,22.61
2018-08-09T18:00:25.575Z,22.62
2018-08-09T18:02:59.917Z,22.62
2018-08-09T18:05:33.286Z,22.66
2018-08-09T18:08:07.367Z,22.69
2018-08-09T18:10:40.773Z,22.70
2018-08-09T18:13:14.116Z,22.73
2018-08-09T18:15:47.459Z,22.73
2018-08-09T18:18:21.042Z,22.71
2018-08-09T18:20:54.447Z,22.74
2018-08-09T18:23:29.958Z,22.77
2018-08-09T18:26:03.655Z,22.81
2018-08-09T18:28:37.080Z,22.84
2018-08-09T18:31:10.482Z,22.86
2018-08-09T18:33:44.029Z,22.86
2018-08-09T18:36:17.422Z,22.89
2018-08-09T18:38:50.913Z,22.89
2018-08-09T18:41:24.338Z,22.87
2018-08-09T18:43:59.944Z,22.90
2018-08-09T18:46:33.381Z,22.90
2018-08-09T18:49:06.946Z,22.91
2018-08-09T18:51:40.333Z,22.89
2018-08-09T18:54:17.703Z,22.82
2018-08-09T18:56:51.105Z,22.80
2018-08-09T18:59:24.574Z,22.74
2018-08-09T19:01:58.068Z,22.72
2018-08-09T19:04:31.428Z,22.69
2018-08-09T19:07:05.089Z,22.65
2018-08-09T19:09:38.590Z,22.62
2018-08-09T19:12:11.973Z,22.61
2018-08-09T19:14:45.464Z,22.57
2018-08-09T19:17:26.897Z,22.56
2018-08-09T19:20:01.454Z,22.54
2018-08-09T19:22:35.820Z,22.51
2018-08-09T19:25:09.935Z,22.47
2018-08-09T19:27:44.479Z,22.42
2018-08-09T19:30:19.525Z,22.35
2018-08-09T19:32:52.975Z,22.33
2018-08-09T19:35:26.365Z,22.36
2018-08-09T19:38:00.015Z,22.34
2018-08-09T19:40:34.367Z,22.31
2018-08-09T19:43:08.296Z,22.29
2018-08-09T19:45:41.662Z,22.27
2018-08-09T19:48:22.735Z,22.23
2018-08-09T19:50:56.126Z,22.15
2018-08-09T19:53:29.964Z,22.09
2018-08-09T19:56:04.289Z,22.08
2018-08-09T19:58:37.717Z,22.06
2018-08-09T20:01:11.129Z,22.01
2018-08-09T20:03:44.513Z,22.01
2018-08-09T20:06:17.954Z,22.01
2018-08-09T20:08:54.258Z,22.01
2018-08-09T20:11:27.714Z,21.94
2018-08-09T20:14:01.124Z,21.95
2018-08-09T20:16:34.685Z,21.92
2018-08-09T20:19:08.439Z,21.93
2018-08-09T20:21:45.072Z,21.92
2018-08-09T20:24:19.225Z,21.88
2018-08-09T20:26:52.699Z,21.87
2018-08-09T20:29:26.208Z,21.82
2018-08-09T20:32:00.053Z,21.85
2018-08-09T20:34:33.613Z,21.83
2018-08-09T20:37:07.091Z,21.83
2018-08-09T20:39:46.609Z,21.79
2018-08-09T20:42:20.184Z,21.78
2018-08-09T20:44:53.649Z,21.76
2018-08-09T20:47:26.997Z,21.74
2018-08-09T20:50:00.411Z,21.74
2018-08-09T20:52:33.826Z,21.71
2018-08-09T20:55:07.596Z,21.70
2018-08-09T20:57:41.951Z,21.64
2018-08-09T21:00:24.578Z,21.65
2018-08-09T21:02:59.127Z,21.63
2018-08-09T21:05:34.154Z,21.63
2018-08-09T21:08:07.921Z,21.62
2018-08-09T21:10:41.349Z,21.61
2018-08-09T21:13:14.723Z,21.60
2018-08-09T21:15:48.786Z,21.54
2018-08-09T21:18:22.265Z,21.50
2018-08-09T21:20:55.630Z,21.46
2018-08-09T21:23:29.106Z,21.43
2018-08-09T21:26:02.553Z,21.38
2018-08-09T21:28:36.020Z,21.35
2018-08-09T21:31:09.618Z,21.33
2018-08-09T21:33:43.066Z,21.34
2018-08-09T21:36:16.449Z,21.31
2018-08-09T21:38:49.879Z,21.33
2018-08-09T21:41:23.231Z,21.34
2018-08-09T21:43:56.657Z,21.27
2018-08-09T21:46:30.032Z,21.25
2018-08-09T21:49:03.585Z,21.26
2018-08-09T21:51:36.950Z,21.24
2018-08-09T21:54:10.450Z,21.20
2018-08-09T21:56:43.882Z,21.16
2018-08-09T21:59:17.411Z,21.11
2018-08-09T22:01:50.800Z,21.13
2018-08-09T22:04:24.182Z,21.13
2018-08-09T22:07:03.013Z,21.11
2018-08-09T22:09:41.576Z,21.11
2018-08-09T22:12:20.251Z,21.11
2018-08-09T22:14:58.812Z,21.07
2018-08-09T22:17:37.462Z,21.08
2018-08-09T22:20:16.076Z,20.97
2018-08-09T22:22:49.494Z,21.01
2018-08-09T22:25:22.862Z,20.95
2018-08-09T22:27:56.265Z,20.92
2018-08-09T22:30:29.660Z,20.95
2018-08-09T22:33:03.213Z,20.94
2018-08-09T22:35:36.777Z,20.89
2018-08-09T22:38:10.351Z,20.88
2018-08-09T22:40:43.995Z,20.86
2018-08-09T22:43:17.569Z,20.78
2018-08-09T22:45:51.175Z,20.80
2018-08-09T22:48:24.774Z,20.84
2018-08-09T22:50:58.253Z,20.80
2018-08-09T22:53:31.868Z,20.77
2018-08-09T22:56:05.254Z,20.76
2018-08-09T22:58:38.641Z,20.76
2018-08-09T23:01:12.048Z,20.73
2018-08-09T23:03:45.449Z,20.78
2018-08-09T23:06:18.872Z,20.77
2018-08-09T23:08:52.262Z,20.78
2018-08-09T23:11:25.706Z,20.75
2018-08-09T23:13:59.113Z,20.74
2018-08-09T23:16:32.491Z,20.70
2018-08-09T23:19:05.946Z,20.71
2018-08-09T23:21:39.347Z,20.70
2018-08-09T23:24:12.749Z,20.70
2018-08-09T23:26:46.122Z,20.73
2018-08-09T23:29:19.529Z,20.68
2018-08-09T23:31:52.986Z,20.65
2018-08-09T23:34:26.426Z,20.60
2018-08-09T23:36:59.844Z,20.59
2018-08-09T23:39:33.189Z,20.60
2018-08-09T23:42:06.807Z,20.56
2018-08-09T23:44:40.206Z,20.54
2018-08-09T23:47:13.589Z,20.48
2018-08-09T23:49:46.967Z,20.47
2018-08-09T23:52:20.426Z,20.46
2018-08-09T23:54:53.809Z,20.38
2018-08-09T23:57:27.797Z,20.37
